Time;durP1;ratioP1;P1;durP2;ratioP2;P2;SDS_P1;SDS_P2;PMS_P1;PMS_P2;Temp;Humidity;BMP_temperature;BMP_pressure;BME280_temperature;BME280_humidity;BME280_pressure;Samples;Min_cycle;Max_cycle;Signal;HPM_P1;HPM_P2
2024/01/31 00:00:15;;;;;;;8.60;5.20;;;;;;;9.20;44.95;102925.50;4955104;28;20043;-75
2024/01/31 00:02:45;;;;;;;8.30;5.55;;;;;;;9.21;44.90;102928.16;4946855;28;20173;-75
2024/01/31 00:05:13;;;;;;;9.68;5.88;;;;;;;9.20;45.29;102928.22;4948767;28;20408;-75
2024/01/31 00:07:42;;;;;;;9.98;5.95;;;;;;;9.19;45.08;102921.00;4959520;28;20761;-76
2024/01/31 00:10:11;;;;;;;10.55;6.28;;;;;;;9.19;45.22;102915.53;4946493;28;20055;-75
2024/01/31 00:12:39;;;;;;;9.65;5.90;;;;;;;9.18;45.47;102916.47;4951507;28;20035;-76
2024/01/31 00:15:08;;;;;;;9.57;5.85;;;;;;;9.19;45.52;102930.06;4954725;28;20043;-75
2024/01/31 00:17:37;;;;;;;9.70;5.90;;;;;;;9.18;45.52;102932.88;4961945;28;20130;-76
2024/01/31 00:20:08;;;;;;;10.43;6.55;;;;;;;9.19;45.44;102945.56;4962066;28;20377;-75
2024/01/31 00:22:36;;;;;;;10.45;6.35;;;;;;;9.18;45.61;102938.34;4983319;28;20525;-76
2024/01/31 00:25:06;;;;;;;9.65;6.13;;;;;;;9.18;45.51;102947.41;4944169;28;20441;-75
2024/01/31 00:27:34;;;;;;;10.77;6.57;;;;;;;9.17;45.54;102945.66;4949897;28;20078;-76
2024/01/31 00:30:02;;;;;;;10.82;6.30;;;;;;;9.16;45.26;102938.44;4985701;28;20498;-76
2024/01/31 00:32:29;;;;;;;10.30;6.78;;;;;;;9.17;45.63;102940.19;4957486;28;20039;-76
2024/01/31 00:34:57;;;;;;;11.20;6.25;;;;;;;9.17;45.24;102936.56;4979490;28;20516;-76
2024/01/31 00:37:27;;;;;;;10.52;6.45;;;;;;;9.18;45.19;102941.06;4970783;28;20445;-76
2024/01/31 00:39:55;;;;;;;10.88;6.65;;;;;;;9.17;45.79;102944.75;4953634;28;20051;-76
2024/01/31 00:42:23;;;;;;;10.93;6.97;;;;;;;9.16;45.74;102943.91;4952450;28;20130;-77
2024/01/31 00:44:51;;;;;;;10.20;6.35;;;;;;;9.16;45.48;102937.56;4972581;28;20525;-77
2024/01/31 00:47:19;;;;;;;10.45;7.07;;;;;;;9.17;45.29;102939.28;4938089;28;21419;-77
2024/01/31 00:49:47;;;;;;;10.52;6.47;;;;;;;9.16;45.24;102940.28;4938570;28;20039;-77
2024/01/31 00:52:16;;;;;;;11.60;6.75;;;;;;;9.16;45.20;102940.28;4949663;28;20078;-77
2024/01/31 00:54:45;;;;;;;9.30;5.93;;;;;;;9.17;45.61;102942.03;4961804;28;20051;-77
2024/01/31 00:57:15;;;;;;;10.32;7.03;;;;;;;9.15;45.81;102938.50;4982968;28;20518;-77
2024/01/31 00:59:44;;;;;;;10.43;6.85;;;;;;;9.15;45.85;102935.78;4950247;28;20039;-77
2024/01/31 01:02:12;;;;;;;10.38;6.70;;;;;;;9.14;45.57;102936.72;4993703;28;20077;-76
2024/01/31 01:04:40;;;;;;;12.32;8.07;;;;;;;9.14;45.60;102945.81;4945217;28;20087;-77
2024/01/31 01:07:08;;;;;;;10.90;7.28;;;;;;;9.14;45.61;102948.56;4953862;28;20055;-78
2024/01/31 01:09:36;;;;;;;10.82;7.30;;;;;;;9.13;45.81;102943.16;4982618;28;20600;-77
2024/01/31 01:12:06;;;;;;;12.15;7.70;;;;;;;9.14;45.98;102948.56;4963266;28;20138;-77
2024/01/31 01:14:34;;;;;;;11.43;7.60;;;;;;;9.12;45.93;102941.38;4995179;28;20041;-77
2024/01/31 01:17:04;;;;;;;12.75;7.47;;;;;;;9.12;46.16;102949.56;4948976;28;20048;-77
2024/01/31 01:19:32;;;;;;;11.80;7.00;;;;;;;9.12;45.99;102950.47;4981294;28;20051;-77
2024/01/31 01:22:00;;;;;;;11.38;7.75;;;;;;;9.10;46.12;102953.25;4977264;28;20039;-77
2024/01/31 01:24:31;;;;;;;12.38;7.75;;;;;;;9.12;46.00;102946.84;4973774;28;20051;-77
2024/01/31 01:26:59;;;;;;;13.45;8.23;;;;;;;9.10;45.80;102949.63;4963756;28;20199;-77
2024/01/31 01:29:28;;;;;;;12.65;8.13;;;;;;;9.12;46.34;102955.03;4984367;28;20039;-78
2024/01/31 01:31:56;;;;;;;13.63;8.65;;;;;;;9.10;46.40;102956.00;4986519;28;20772;-77
2024/01/31 01:34:24;;;;;;;13.93;9.15;;;;;;;9.09;46.36;102958.78;4977242;28;20457;-78
2024/01/31 01:36:52;;;;;;;12.50;8.40;;;;;;;9.09;46.55;102947.88;4983779;28;20515;-78
2024/01/31 01:39:20;;;;;;;14.07;9.20;;;;;;;9.07;46.23;102958.88;4949573;28;20105;-78
2024/01/31 01:41:49;;;;;;;16.05;8.88;;;;;;;9.07;46.58;102956.16;4956620;28;20043;-78
2024/01/31 01:44:17;;;;;;;13.68;8.60;;;;;;;9.06;46.75;102957.13;4972675;28;20048;-77
2024/01/31 01:46:47;;;;;;;12.93;8.75;;;;;;;9.08;46.54;102965.25;4971811;28;20094;-78
2024/01/31 01:49:15;;;;;;;14.13;9.05;;;;;;;9.05;46.43;102969.00;4970965;28;20085;-77
2024/01/31 01:51:44;;;;;;;14.82;8.63;;;;;;;9.06;46.91;102973.50;4947723;28;20082;-77
2024/01/31 01:54:13;;;;;;;13.35;8.07;;;;;;;9.04;46.47;102974.53;4952823;28;20049;-77
2024/01/31 01:56:44;;;;;;;10.77;6.63;;;;;;;9.04;46.79;102982.72;4959370;28;20429;-78
2024/01/31 01:59:13;;;;;;;9.68;5.60;;;;;;;9.02;46.39;102980.06;4951755;28;20138;-76
2024/01/31 02:01:42;;;;;;;8.95;5.38;;;;;;;8.98;46.29;102977.56;4960448;28;20150;-76
2024/01/31 02:04:13;;;;;;;8.90;5.05;;;;;;;8.94;46.67;102985.00;4956650;28;21253;-77
2024/01/31 02:06:41;;;;;;;8.93;4.38;;;;;;;8.87;46.56;102980.78;4969990;28;20097;-76
2024/01/31 02:09:09;;;;;;;6.43;3.75;;;;;;;8.84;46.43;102989.09;4998233;28;20056;-76
2024/01/31 02:11:38;;;;;;;6.68;3.40;;;;;;;8.80;46.44;102978.41;4963928;28;20047;-77
2024/01/31 02:14:08;;;;;;;8.32;3.58;;;;;;;8.75;46.86;102977.75;4968214;28;20037;-76
2024/01/31 02:16:36;;;;;;;6.38;3.85;;;;;;;8.72;46.66;102978.78;4951876;28;20130;-76
2024/01/31 02:19:04;;;;;;;6.68;3.60;;;;;;;8.67;46.59;102976.25;4946794;28;20743;-77
2024/01/31 02:21:38;;;;;;;7.03;3.78;;;;;;;8.66;47.13;102973.59;4955970;28;20046;-77
2024/01/31 02:24:07;;;;;;;6.65;4.07;;;;;;;8.62;47.11;102980.16;4947155;28;20055;-75
2024/01/31 02:26:35;;;;;;;8.82;4.32;;;;;;;8.58;46.83;102978.53;4948305;28;20465;-75
2024/01/31 02:29:03;;;;;;;8.43;4.40;;;;;;;8.55;47.31;102978.66;4948533;28;20457;-76
2024/01/31 02:31:31;;;;;;;8.63;4.30;;;;;;;8.53;47.41;102978.72;4952925;28;20047;-76
2024/01/31 02:33:59;;;;;;;10.13;5.05;;;;;;;8.53;47.46;102983.28;4974725;28;20045;-75
2024/01/31 02:36:27;;;;;;;9.05;4.68;;;;;;;8.52;47.13;102984.25;4946075;28;20079;-77
2024/01/31 02:38:55;;;;;;;7.28;3.85;;;;;;;8.51;47.62;102987.91;4947442;28;20146;-76
2024/01/31 02:41:25;;;;;;;8.27;4.53;;;;;;;8.51;47.49;102987.91;4946896;28;20053;-78
2024/01/31 02:43:53;;;;;;;9.48;4.65;;;;;;;8.49;47.27;102981.66;4952633;28;20051;-76
2024/01/31 02:46:21;;;;;;;7.50;4.43;;;;;;;8.48;47.17;102983.50;4987422;28;20126;-76
2024/01/31 02:48:49;;;;;;;7.53;4.30;;;;;;;8.49;47.51;102984.41;4998438;28;20041;-76
2024/01/31 02:51:17;;;;;;;8.70;4.32;;;;;;;8.47;47.30;102976.28;4944316;28;20130;-76
2024/01/31 02:53:45;;;;;;;6.72;3.63;;;;;;;8.47;47.63;102991.75;4948873;28;20532;-76
2024/01/31 02:56:13;;;;;;;6.97;3.40;;;;;;;8.46;47.85;102982.69;4952248;28;20405;-76
2024/01/31 02:58:42;;;;;;;6.78;3.42;;;;;;;8.48;47.47;102986.25;4959868;28;20055;-77
2024/01/31 03:01:10;;;;;;;7.57;3.53;;;;;;;8.46;47.48;102976.34;4971677;28;20414;-76
2024/01/31 03:03:38;;;;;;;7.57;3.80;;;;;;;8.45;47.17;102982.75;4963838;28;20551;-76
2024/01/31 03:06:06;;;;;;;8.57;3.80;;;;;;;8.45;47.16;102977.28;4979452;28;20132;-77
2024/01/31 03:08:34;;;;;;;6.85;3.58;;;;;;;8.44;47.45;102983.69;4946709;28;20075;-77
2024/01/31 03:11:02;;;;;;;6.03;3.00;;;;;;;8.44;47.31;102981.88;4953804;28;20127;-76
2024/01/31 03:13:30;;;;;;;5.90;3.13;;;;;;;8.42;47.52;102975.63;4973098;28;20120;-77
2024/01/31 03:15:59;;;;;;;6.35;2.97;;;;;;;8.44;47.37;102980.97;4967198;28;20035;-77
2024/01/31 03:18:27;;;;;;;7.88;3.45;;;;;;;8.41;47.20;102984.75;4943114;28;20063;-77
2024/01/31 03:20:56;;;;;;;7.60;3.20;;;;;;;8.42;47.27;102985.63;4942335;28;20054;-77
2024/01/31 03:23:24;;;;;;;5.40;2.83;;;;;;;8.41;47.47;102981.13;4963486;28;20070;-77
2024/01/31 03:25:52;;;;;;;7.50;2.92;;;;;;;8.42;47.40;102982.91;4970575;28;20133;-77
2024/01/31 03:28:20;;;;;;;5.32;2.70;;;;;;;8.40;47.55;102985.69;4944761;28;20047;-77
2024/01/31 03:30:48;;;;;;;5.13;3.00;;;;;;;8.40;47.49;102993.00;4978644;28;20510;-77
2024/01/31 03:33:17;;;;;;;5.10;2.60;;;;;;;8.42;48.00;102985.63;4947424;28;20091;-76
2024/01/31 03:35:46;;;;;;;5.97;2.42;;;;;;;8.39;47.60;102981.19;4980230;28;20528;-78
2024/01/31 03:38:14;;;;;;;4.03;2.35;;;;;;;8.40;47.58;102990.28;4948507;28;20044;-77
2024/01/31 03:40:42;;;;;;;6.55;2.78;;;;;;;8.40;47.49;102998.47;4959952;28;20047;-76
2024/01/31 03:43:11;;;;;;;5.15;2.28;;;;;;;8.39;47.61;102989.38;4945848;28;20435;-77
2024/01/31 03:45:39;;;;;;;6.38;2.63;;;;;;;8.40;47.66;102993.00;4953202;28;20047;-77
2024/01/31 03:48:08;;;;;;;6.97;2.60;;;;;;;8.41;47.49;102989.31;4946731;28;20077;-77
2024/01/31 03:50:38;;;;;;;5.22;2.70;;;;;;;8.42;47.47;102991.09;4973939;28;20033;-77
2024/01/31 03:53:06;;;;;;;5.40;2.75;;;;;;;8.39;47.78;102994.84;4976899;28;20526;-76
2024/01/31 03:55:34;;;;;;;5.72;2.90;;;;;;;8.40;47.89;103001.19;4963516;28;20087;-77
2024/01/31 03:58:03;;;;;;;5.80;2.72;;;;;;;8.40;47.59;103007.53;4954277;28;20534;-77
2024/01/31 04:00:31;;;;;;;6.07;2.78;;;;;;;8.41;47.69;102994.78;4947621;28;20055;-77
2024/01/31 04:02:59;;;;;;;4.38;2.50;;;;;;;8.40;48.04;102993.00;4948885;28;20515;-77
2024/01/31 04:05:27;;;;;;;6.47;3.00;;;;;;;8.40;47.61;102996.63;4977445;28;20078;-75
2024/01/31 04:07:57;;;;;;;5.65;3.00;;;;;;;8.41;47.56;102992.03;4943971;28;20054;-75
2024/01/31 04:10:26;;;;;;;5.40;3.00;;;;;;;8.40;47.91;102987.53;4938719;28;20054;-75
2024/01/31 04:12:54;;;;;;;6.65;3.40;;;;;;;8.39;47.72;102978.47;4951875;28;20437;-75
2024/01/31 04:15:22;;;;;;;6.47;3.17;;;;;;;8.39;47.64;102972.13;4959455;28;20574;-76
2024/01/31 04:17:50;;;;;;;6.95;3.60;;;;;;;8.38;47.70;102965.78;4960217;28;20048;-76
2024/01/31 04:20:20;;;;;;;5.85;3.20;;;;;;;8.38;47.99;102957.59;4946612;28;20043;-76
2024/01/31 04:22:48;;;;;;;6.70;3.15;;;;;;;8.38;48.12;102964.88;4945830;28;20463;-75
2024/01/31 04:25:17;;;;;;;5.68;2.95;;;;;;;8.40;48.12;102954.81;4949517;28;20055;-75
2024/01/31 04:27:45;;;;;;;6.90;3.45;;;;;;;8.37;47.69;102947.63;4949327;28;20089;-76
2024/01/31 04:30:14;;;;;;;7.50;3.60;;;;;;;8.38;47.90;102940.34;4946542;28;20043;-76
2024/01/31 04:32:42;;;;;;;5.85;3.42;;;;;;;8.37;47.83;102941.28;4949243;28;20074;-76
2024/01/31 04:35:10;;;;;;;6.95;4.00;;;;;;;8.36;47.83;102939.50;4949971;28;20053;-75
2024/01/31 04:37:39;;;;;;;6.70;3.38;;;;;;;8.36;47.80;102943.13;4975212;28;20059;-75
2024/01/31 04:40:09;;;;;;;6.90;3.88;;;;;;;8.37;48.22;102955.81;4947486;28;20449;-76
2024/01/31 04:42:39;;;;;;;9.48;4.00;;;;;;;8.37;48.17;102950.34;4945578;28;20043;-76
2024/01/31 04:45:09;;;;;;;6.30;3.55;;;;;;;8.36;47.99;102947.69;4941774;28;20047;-75
2024/01/31 04:47:37;;;;;;;6.75;3.30;;;;;;;8.34;47.99;102950.50;4956525;28;20051;-76
2024/01/31 04:50:07;;;;;;;7.10;3.75;;;;;;;8.34;48.28;102955.97;4945951;28;20097;-75
2024/01/31 04:52:35;;;;;;;7.20;3.60;;;;;;;8.34;48.26;102945.06;4957951;28;20563;-76
2024/01/31 04:55:04;;;;;;;6.05;3.58;;;;;;;8.34;48.21;102942.34;4945515;28;20122;-75
2024/01/31 04:57:32;;;;;;;7.82;3.75;;;;;;;8.33;48.53;102943.28;4973436;28;20055;-75
2024/01/31 05:00:04;;;;;;;5.57;3.28;;;;;;;8.35;48.74;102952.25;4958919;28;20055;-76
2024/01/31 05:02:32;;;;;;;7.00;3.30;;;;;;;8.32;48.21;102952.41;4948546;28;20053;-76
2024/01/31 05:05:01;;;;;;;6.68;3.47;;;;;;;8.33;48.23;102949.63;4947271;28;20081;-76
2024/01/31 05:07:29;;;;;;;6.68;3.42;;;;;;;8.33;48.45;102946.91;4982508;28;20564;-76
2024/01/31 05:09:57;;;;;;;6.70;3.90;;;;;;;8.33;47.89;102954.19;4948064;28;20055;-75
2024/01/31 05:12:25;;;;;;;6.57;3.65;;;;;;;8.33;48.16;102948.75;4955132;28;20038;-75
2024/01/31 05:14:53;;;;;;;7.40;3.80;;;;;;;8.33;48.45;102943.28;4952548;28;20137;-76
2024/01/31 05:17:23;;;;;;;7.18;3.67;;;;;;;8.33;48.37;102951.47;4979596;28;20055;-75
2024/01/31 05:19:53;;;;;;;6.93;3.60;;;;;;;8.31;48.11;102940.63;4960142;28;20069;-76
2024/01/31 05:22:25;;;;;;;6.05;3.50;;;;;;;8.28;48.25;102946.19;4961009;28;20054;-75
2024/01/31 05:24:53;;;;;;;8.88;4.40;;;;;;;8.30;48.31;102940.69;4947555;28;20047;-74
2024/01/31 05:27:21;;;;;;;8.63;4.20;;;;;;;8.31;47.98;102947.91;4958007;28;20507;-75
2024/01/31 05:29:49;;;;;;;7.22;4.18;;;;;;;8.31;48.21;102953.38;4956301;28;20134;-74
2024/01/31 05:32:17;;;;;;;7.88;4.47;;;;;;;8.30;48.31;102957.94;4968323;28;20489;-74
2024/01/31 05:34:48;;;;;;;7.03;4.18;;;;;;;8.32;48.07;102958.75;4952400;28;20122;-74
2024/01/31 05:37:16;;;;;;;7.38;3.78;;;;;;;8.31;48.09;102954.25;4972750;28;20054;-74
2024/01/31 05:39:44;;;;;;;7.57;3.72;;;;;;;8.32;48.36;102960.59;4948858;28;20070;-74
2024/01/31 05:42:12;;;;;;;8.00;3.67;;;;;;;8.32;47.90;102966.94;4957419;28;20066;-74
2024/01/31 05:44:40;;;;;;;7.65;3.65;;;;;;;8.32;48.35;102961.50;4952106;28;20077;-73
2024/01/31 05:47:08;;;;;;;8.85;4.35;;;;;;;8.31;47.93;102958.81;4966602;28;20051;-74
2024/01/31 05:49:36;;;;;;;9.85;5.22;;;;;;;8.30;48.34;102952.47;4966006;28;20052;-75
2024/01/31 05:52:06;;;;;;;7.53;4.22;;;;;;;8.32;47.83;102950.56;4955680;28;20053;-74
2024/01/31 05:54:34;;;;;;;7.30;4.00;;;;;;;8.30;48.34;102951.59;4950511;28;20402;-75
2024/01/31 05:57:02;;;;;;;6.13;3.15;;;;;;;8.29;48.15;102958.88;4970622;28;20051;-76
2024/01/31 05:59:30;;;;;;;7.47;3.10;;;;;;;8.30;48.19;102965.22;4952164;28;20131;-75
2024/01/31 06:01:58;;;;;;;7.55;3.80;;;;;;;8.29;47.89;102953.44;4981756;28;20094;-75
2024/01/31 06:04:27;;;;;;;5.75;2.92;;;;;;;8.31;48.18;102959.72;4945353;28;20171;-75
2024/01/31 06:06:57;;;;;;;5.20;2.90;;;;;;;8.30;48.39;102959.78;4947685;28;20047;-76
2024/01/31 06:09:26;;;;;;;5.00;3.10;;;;;;;8.33;48.10;102967.84;4949911;28;20051;-76
2024/01/31 06:11:54;;;;;;;6.93;3.13;;;;;;;8.30;48.13;102976.16;4951960;28;20589;-75
2024/01/31 06:14:22;;;;;;;6.45;3.47;;;;;;;8.31;48.04;102976.09;4948855;28;20054;-75
2024/01/31 06:16:50;;;;;;;8.07;3.40;;;;;;;8.31;48.28;102973.34;4964222;28;20051;-73
2024/01/31 06:19:19;;;;;;;7.00;3.40;;;;;;;8.31;48.26;102972.47;4944909;28;20047;-75
2024/01/31 06:21:47;;;;;;;6.78;3.42;;;;;;;8.31;48.16;102978.81;4955097;28;20050;-75
2024/01/31 06:24:15;;;;;;;6.05;3.22;;;;;;;8.30;48.44;102973.41;4958006;28;20291;-76
2024/01/31 06:26:44;;;;;;;6.18;3.05;;;;;;;8.32;47.99;102969.69;4964198;28;20051;-76
2024/01/31 06:29:17;;;;;;;6.22;3.28;;;;;;;8.29;48.30;102966.19;4950974;28;20143;-75
2024/01/31 06:31:47;;;;;;;5.57;3.40;;;;;;;8.29;47.90;102963.47;4947360;28;20397;-75
2024/01/31 06:34:16;;;;;;;5.70;3.13;;;;;;;8.29;48.41;102968.91;4944506;28;20509;-75
2024/01/31 06:36:45;;;;;;;5.28;3.28;;;;;;;8.29;48.19;102972.53;4973694;28;20079;-75
2024/01/31 06:39:13;;;;;;;6.20;3.33;;;;;;;8.27;48.40;102968.97;4945450;28;20441;-75
2024/01/31 06:41:41;;;;;;;5.15;2.80;;;;;;;8.27;48.11;102971.69;4952906;28;20126;-75
2024/01/31 06:44:11;;;;;;;7.53;3.83;;;;;;;8.28;48.67;102972.59;4945458;28;20039;-75
2024/01/31 06:46:39;;;;;;;6.25;3.35;;;;;;;8.27;48.49;102968.09;4960679;28;20101;-74
2024/01/31 06:49:07;;;;;;;7.10;3.33;;;;;;;8.26;48.20;102972.66;4943365;28;20043;-74
2024/01/31 06:51:36;;;;;;;5.65;2.85;;;;;;;8.25;48.02;102973.63;4947984;28;20458;-74
2024/01/31 06:54:04;;;;;;;5.72;3.03;;;;;;;8.25;48.20;102973.63;4962601;28;20054;-77
2024/01/31 06:56:32;;;;;;;8.48;3.28;;;;;;;8.24;48.03;102971.84;4975863;28;20061;-78
2024/01/31 06:59:03;;;;;;;6.15;3.38;;;;;;;8.24;48.12;102968.25;4944686;28;20047;-76
2024/01/31 07:01:32;;;;;;;8.35;3.40;;;;;;;8.24;48.19;102971.84;4957322;28;20039;-76
2024/01/31 07:04:00;;;;;;;6.32;3.20;;;;;;;8.23;48.04;102963.75;4952547;28;20049;-75
2024/01/31 07:06:29;;;;;;;6.32;3.45;;;;;;;8.23;48.31;102967.34;4988159;28;20519;-75
2024/01/31 07:08:58;;;;;;;6.30;3.60;;;;;;;8.23;48.28;102978.25;4946996;28;20380;-77
2024/01/31 07:11:27;;;;;;;7.68;3.70;;;;;;;8.22;48.72;102970.16;4954358;28;20529;-77
2024/01/31 07:13:55;;;;;;;6.20;3.13;;;;;;;8.22;48.51;102973.75;4951758;28;20051;-76
2024/01/31 07:16:23;;;;;;;6.00;3.13;;;;;;;8.21;48.25;102969.25;4957318;28;20560;-77
2024/01/31 07:18:54;;;;;;;5.82;3.45;;;;;;;8.22;48.14;102972.88;4954814;28;20404;-77
2024/01/31 07:21:26;;;;;;;6.15;3.20;;;;;;;8.22;48.35;102956.50;4945912;28;20398;-77
2024/01/31 07:23:54;;;;;;;5.47;3.38;;;;;;;8.20;48.49;102959.28;4946305;28;20097;-77
2024/01/31 07:26:23;;;;;;;5.40;3.20;;;;;;;8.19;48.61;102960.25;4953997;28;20043;-78
2024/01/31 07:28:51;;;;;;;6.97;3.03;;;;;;;8.20;48.68;102966.59;4945549;28;20050;-77
2024/01/31 07:31:20;;;;;;;7.72;3.72;;;;;;;8.19;48.63;102959.34;4947709;28;20047;-76
2024/01/31 07:33:50;;;;;;;6.50;3.60;;;;;;;8.18;48.37;102961.19;4952129;28;20363;-76
2024/01/31 07:36:20;;;;;;;7.35;3.45;;;;;;;8.18;48.86;102963.91;4985616;28;20097;-76
2024/01/31 07:38:48;;;;;;;6.50;3.30;;;;;;;8.17;48.57;102967.63;4946263;28;20051;-76
2024/01/31 07:41:16;;;;;;;6.40;3.58;;;;;;;8.18;48.48;102963.03;4949060;28;20046;-76
2024/01/31 07:43:44;;;;;;;5.22;3.50;;;;;;;8.17;48.43;102962.19;4950693;28;20503;-75
2024/01/31 07:46:12;;;;;;;7.00;3.97;;;;;;;8.17;48.43;102955.84;4979194;28;20039;-76
2024/01/31 07:48:40;;;;;;;6.10;2.97;;;;;;;8.17;48.68;102961.28;4945551;28;20048;-77
2024/01/31 07:51:08;;;;;;;6.78;3.08;;;;;;;8.15;48.51;102958.63;4947050;28;20050;-76
2024/01/31 07:53:38;;;;;;;6.20;3.17;;;;;;;8.16;48.48;102959.50;4940527;28;20794;-76
2024/01/31 07:56:07;;;;;;;6.35;3.20;;;;;;;8.15;48.39;102966.81;4977321;28;20075;-76
2024/01/31 07:58:35;;;;;;;6.18;3.28;;;;;;;8.14;48.32;102967.75;4944549;28;20071;-76
2024/01/31 08:01:03;;;;;;;5.80;3.00;;;;;;;8.14;48.39;102965.03;4942883;28;20525;-75
2024/01/31 08:03:31;;;;;;;6.53;3.33;;;;;;;8.14;48.47;102973.22;4936210;28;20043;-75
2024/01/31 08:06:00;;;;;;;6.57;3.65;;;;;;;8.14;48.27;102978.66;4954504;28;20136;-75
2024/01/31 08:08:29;;;;;;;8.88;4.18;;;;;;;8.15;48.48;102975.00;4946991;28;20169;-74
2024/01/31 08:10:59;;;;;;;8.20;3.95;;;;;;;8.15;48.74;102975.00;4945173;28;20399;-75
2024/01/31 08:13:27;;;;;;;8.38;4.00;;;;;;;8.14;48.27;102975.94;4945731;28;20043;-75
2024/01/31 08:15:55;;;;;;;9.05;4.40;;;;;;;8.14;48.43;102983.22;4952189;28;20047;-75
2024/01/31 08:18:23;;;;;;;7.03;4.13;;;;;;;8.14;48.44;103005.94;4964592;28;20056;-75
2024/01/31 08:20:52;;;;;;;7.82;3.90;;;;;;;8.14;48.16;103005.06;4947487;28;20506;-75
2024/01/31 08:23:20;;;;;;;8.73;4.53;;;;;;;8.15;48.36;103009.56;4944648;28;20097;-76
2024/01/31 08:25:48;;;;;;;7.32;3.90;;;;;;;8.13;48.29;103001.44;4954411;28;20051;-75
2024/01/31 08:28:17;;;;;;;8.05;4.82;;;;;;;8.14;48.28;103000.50;4954113;28;20811;-75
2024/01/31 08:30:45;;;;;;;7.53;4.50;;;;;;;8.13;48.23;103012.34;4950517;28;20067;-75
2024/01/31 08:33:14;;;;;;;9.60;4.20;;;;;;;8.13;48.20;103008.69;4949210;28;20584;-76
2024/01/31 08:35:43;;;;;;;7.93;4.43;;;;;;;8.12;48.56;103006.91;4949019;28;20036;-76
2024/01/31 08:38:11;;;;;;;7.93;4.13;;;;;;;8.14;48.73;103013.22;4973196;28;20043;-76
2024/01/31 08:40:39;;;;;;;7.68;4.00;;;;;;;8.13;48.84;103012.34;4949479;28;20145;-77
2024/01/31 08:43:07;;;;;;;8.77;4.20;;;;;;;8.14;48.49;103015.97;4956226;28;20167;-76
2024/01/31 08:45:36;;;;;;;8.60;4.60;;;;;;;8.16;48.20;103019.53;4949236;28;20085;-77
2024/01/31 08:48:05;;;;;;;8.95;3.60;;;;;;;8.15;48.32;103035.00;4949318;28;20043;-81
2024/01/31 08:50:33;;;;;;;7.00;3.72;;;;;;;8.13;48.69;103023.25;4965193;28;20043;-75
2024/01/31 08:53:01;;;;;;;8.68;3.75;;;;;;;8.15;48.64;103028.66;4951218;28;20046;-74
2024/01/31 08:55:29;;;;;;;6.90;3.88;;;;;;;8.15;48.54;103028.66;4957952;28;20048;-74
2024/01/31 08:57:58;;;;;;;6.40;3.72;;;;;;;8.14;48.33;103032.31;4947923;28;20051;-74
2024/01/31 09:00:29;;;;;;;8.23;3.95;;;;;;;8.14;48.48;103035.94;4948652;28;20145;-73
2024/01/31 09:02:58;;;;;;;6.90;3.63;;;;;;;8.17;48.28;103045.84;4951606;28;20047;-76
2024/01/31 09:05:27;;;;;;;6.75;3.63;;;;;;;8.14;48.50;103046.84;5037669;28;20554;-74
2024/01/31 09:08:00;;;;;;;6.32;3.72;;;;;;;8.13;48.31;103042.34;4958205;28;20050;-73
2024/01/31 09:10:28;;;;;;;6.25;3.40;;;;;;;8.14;48.41;103045.97;4949733;29;20043;-75
2024/01/31 09:12:56;;;;;;;7.97;3.97;;;;;;;8.14;48.23;103037.78;4949473;28;20039;-75
2024/01/31 09:15:24;;;;;;;9.23;4.50;;;;;;;8.14;48.64;103044.13;4949477;28;20330;-75
2024/01/31 09:17:52;;;;;;;8.32;4.60;;;;;;;8.15;48.35;103045.91;4948687;28;20043;-76
2024/01/31 09:20:22;;;;;;;8.68;4.40;;;;;;;8.16;48.70;103041.34;4948712;28;20053;-76
2024/01/31 09:22:50;;;;;;;9.80;4.53;;;;;;;8.14;48.72;103040.50;4948840;28;20055;-75
2024/01/31 09:25:18;;;;;;;8.48;4.60;;;;;;;8.15;48.60;103034.09;5002260;28;20077;-75
2024/01/31 09:27:46;;;;;;;8.30;4.57;;;;;;;8.14;48.22;103030.50;4948234;28;20117;-75
2024/01/31 09:30:14;;;;;;;9.30;4.30;;;;;;;8.15;48.54;103028.66;4971247;28;20067;-74
2024/01/31 09:32:42;;;;;;;10.32;5.15;;;;;;;8.14;48.55;103016.84;4947864;28;20071;-75
2024/01/31 09:35:10;;;;;;;7.70;4.47;;;;;;;8.14;48.61;103032.31;4949290;28;20507;-75
2024/01/31 09:37:40;;;;;;;9.70;4.78;;;;;;;8.16;48.49;103030.44;5036337;28;20049;-74
2024/01/31 09:40:14;;;;;;;9.35;5.15;;;;;;;8.16;48.54;103035.88;4954714;28;20051;-74
2024/01/31 09:42:42;;;;;;;7.78;4.32;;;;;;;8.15;48.67;103025.91;4982448;28;20045;-75
2024/01/31 09:45:12;;;;;;;9.00;4.35;;;;;;;8.16;48.62;103023.13;5048494;28;20041;-74
2024/01/31 09:47:41;;;;;;;8.77;4.70;;;;;;;8.15;48.68;103013.19;4987134;28;20091;-74
2024/01/31 09:50:09;;;;;;;9.07;4.88;;;;;;;8.16;48.41;103014.94;4951839;28;20089;-74
2024/01/31 09:52:42;;;;;;;9.85;4.55;;;;;;;8.16;48.25;103006.78;4948131;28;20051;-74
2024/01/31 09:55:12;;;;;;;7.97;4.55;;;;;;;8.16;48.21;103003.16;4989557;28;20136;-74
2024/01/31 09:57:40;;;;;;;8.88;4.75;;;;;;;8.15;48.51;102993.19;5049731;28;20731;-75
2024/01/31 10:00:10;;;;;;;9.93;4.97;;;;;;;8.15;48.51;102990.47;5005797;28;20054;-75
2024/01/31 10:02:41;;;;;;;10.35;5.30;;;;;;;8.15;48.27;102994.09;4966596;28;20572;-74
2024/01/31 10:05:10;;;;;;;9.85;4.60;;;;;;;8.15;48.07;102985.00;4966628;28;20039;-75
2024/01/31 10:07:40;;;;;;;9.23;4.60;;;;;;;8.15;48.27;102990.47;4964319;28;20063;-74
2024/01/31 10:10:10;;;;;;;8.55;4.40;;;;;;;8.15;48.41;102988.63;4948929;28;20310;-74
2024/01/31 10:12:39;;;;;;;7.60;4.18;;;;;;;8.15;48.29;102982.28;4948513;28;20553;-74
2024/01/31 10:15:09;;;;;;;7.72;3.95;;;;;;;8.16;48.34;102975.88;4947577;28;20051;-75
2024/01/31 10:17:38;;;;;;;10.27;4.28;;;;;;;8.14;48.66;102972.31;4950290;28;20138;-74
2024/01/31 10:20:10;;;;;;;9.38;4.20;;;;;;;8.15;48.35;102976.81;4958900;28;20470;-74
2024/01/31 10:22:40;;;;;;;7.43;4.10;;;;;;;8.14;47.99;102983.22;4969843;28;20061;-75
2024/01/31 10:25:15;;;;;;;7.03;3.95;;;;;;;8.15;48.22;102985.91;4969894;28;20043;-74
2024/01/31 10:27:46;;;;;;;9.07;4.45;;;;;;;8.15;48.71;102980.44;4969932;28;20133;-75
2024/01/31 10:30:15;;;;;;;7.85;4.20;;;;;;;8.15;48.39;102979.56;4970267;28;20097;-75
2024/01/31 10:32:45;;;;;;;10.85;4.75;;;;;;;8.16;48.24;102978.59;4950588;28;20044;-75
2024/01/31 10:35:14;;;;;;;9.10;4.85;;;;;;;8.15;48.56;102969.53;4951413;28;20043;-75
2024/01/31 10:38:02;;;;;;;9.45;4.80;;;;;;;8.14;48.33;102967.75;4951745;28;20039;-75
2024/01/31 10:40:34;;;;;;;9.15;4.75;;;;;;;8.16;48.39;102960.41;4950457;28;20047;-75
2024/01/31 10:43:02;;;;;;;8.77;5.13;;;;;;;8.14;48.47;102958.69;4950341;28;20055;-75
2024/01/31 10:45:31;;;;;;;10.95;5.90;;;;;;;8.14;48.22;102948.66;4951817;28;20044;-75
2024/01/31 10:47:59;;;;;;;10.40;5.57;;;;;;;8.15;48.19;102930.47;4951873;28;20074;-75
2024/01/31 10:50:28;;;;;;;12.05;6.35;;;;;;;8.16;48.32;102926.78;4951482;28;20583;-75
2024/01/31 10:52:57;;;;;;;11.30;6.20;;;;;;;8.15;48.43;102920.44;4951270;28;20075;-75
2024/01/31 10:55:26;;;;;;;15.27;6.90;;;;;;;8.15;48.56;102922.28;4997623;22;20123;-75
2024/01/31 10:57:57;;;;;;;13.07;6.07;;;;;;;8.16;48.55;102930.41;4928011;28;20462;-76
2024/01/31 11:00:28;;;;;;;13.27;6.30;;;;;;;8.15;48.79;102914.97;4906595;28;20099;-76
2024/01/31 11:02:57;;;;;;;11.63;5.75;;;;;;;8.15;48.97;102905.91;4910430;28;20140;-76
2024/01/31 11:05:26;;;;;;;10.75;6.32;;;;;;;8.15;48.61;102895.91;4936259;28;20047;-75
2024/01/31 11:07:56;;;;;;;12.85;7.70;;;;;;;8.17;48.82;102899.44;4904055;28;20487;-76
2024/01/31 11:10:26;;;;;;;12.57;7.13;;;;;;;8.17;48.71;102899.44;4913206;28;20052;-75
2024/01/31 11:13:01;;;;;;;13.07;7.30;;;;;;;8.20;48.89;102892.94;4905505;28;20573;-75
2024/01/31 11:15:30;;;;;;;12.98;7.63;;;;;;;8.18;48.77;102906.66;4928286;28;20041;-75
2024/01/31 11:18:06;;;;;;;13.25;7.30;;;;;;;8.21;48.74;102905.63;4904314;28;20072;-75
2024/01/31 11:20:36;;;;;;;12.38;7.13;;;;;;;8.19;48.92;102897.50;4902674;28;20044;-75
2024/01/31 11:23:05;;;;;;;13.57;7.53;;;;;;;8.19;49.19;102899.34;4908757;28;20098;-76
2024/01/31 11:25:35;;;;;;;13.32;7.18;;;;;;;8.21;49.12;102898.34;4931016;28;20058;-76
2024/01/31 11:28:05;;;;;;;11.95;7.00;;;;;;;8.23;49.01;102904.63;4927676;28;20223;-76
2024/01/31 11:30:34;;;;;;;12.88;7.65;;;;;;;8.23;48.81;102898.28;4939850;28;20040;-76
2024/01/31 11:33:03;;;;;;;12.63;7.78;;;;;;;8.26;49.14;102907.19;4949499;28;20034;-76
2024/01/31 11:35:32;;;;;;;13.50;8.02;;;;;;;8.26;49.06;102903.56;4896559;28;20040;-76
2024/01/31 11:38:05;;;;;;;12.30;7.30;;;;;;;8.26;49.25;102890.81;4907298;28;20164;-75